sensor_id;sensor_type;location;lat;lon;timestamp;pressure;altitude;pressure_sealevel;temperature;humidity
70011;BME280;59543;37.950;-122.338;2023-07-29T00:00:58;101332.16;;;21.54;58.69
70011;BME280;59543;37.950;-122.338;2023-07-29T00:03:25;101330.66;;;21.38;58.14
70011;BME280;59543;37.950;-122.338;2023-07-29T00:05:52;101328.75;;;21.38;56.78
70011;BME280;59543;37.950;-122.338;2023-07-29T00:08:18;101325.91;;;21.93;57.88
70011;BME280;59543;37.950;-122.338;2023-07-29T00:10:44;101334.50;;;21.57;56.06
70011;BME280;59543;37.950;-122.338;2023-07-29T00:13:11;101327.38;;;21.14;57.53
70011;BME280;59543;37.950;-122.338;2023-07-29T00:15:37;101328.19;;;21.08;60.04
70011;BME280;59543;37.950;-122.338;2023-07-29T00:18:03;101330.34;;;21.19;59.23
70011;BME280;59543;37.950;-122.338;2023-07-29T00:20:29;101326.41;;;20.81;59.76
70011;BME280;59543;37.950;-122.338;2023-07-29T00:22:55;101330.88;;;20.53;60.26
70011;BME280;59543;37.950;-122.338;2023-07-29T00:25:23;101325.19;;;20.27;61.92
70011;BME280;59543;37.950;-122.338;2023-07-29T00:27:50;101324.00;;;20.08;63.63
70011;BME280;59543;37.950;-122.338;2023-07-29T00:30:16;101323.88;;;19.37;64.42
70011;BME280;59543;37.950;-122.338;2023-07-29T00:32:42;101321.69;;;19.47;64.44
70011;BME280;59543;37.950;-122.338;2023-07-29T00:35:08;101315.34;;;19.25;65.03
70011;BME280;59543;37.950;-122.338;2023-07-29T00:37:35;101317.75;;;19.50;65.23
70011;BME280;59543;37.950;-122.338;2023-07-29T00:40:06;101315.00;;;19.64;64.71
70011;BME280;59543;37.950;-122.338;2023-07-29T00:42:35;101310.59;;;19.49;65.16
70011;BME280;59543;37.950;-122.338;2023-07-29T00:45:01;101311.22;;;19.66;65.85
70011;BME280;59543;37.950;-122.338;2023-07-29T00:47:28;101310.38;;;19.29;65.82
70011;BME280;59543;37.950;-122.338;2023-07-29T00:49:54;101313.19;;;18.84;66.96
70011;BME280;59543;37.950;-122.338;2023-07-29T00:52:20;101304.97;;;19.14;67.89
70011;BME280;59543;37.950;-122.338;2023-07-29T00:54:47;101303.94;;;18.56;68.59
70011;BME280;59543;37.950;-122.338;2023-07-29T00:57:14;101309.97;;;18.36;69.43
70011;BME280;59543;37.950;-122.338;2023-07-29T00:59:41;101304.31;;;18.67;69.15
70011;BME280;59543;37.950;-122.338;2023-07-29T01:02:08;101308.47;;;18.48;69.98
70011;BME280;59543;37.950;-122.338;2023-07-29T01:04:34;101303.72;;;18.13;70.79
70011;BME280;59543;37.950;-122.338;2023-07-29T01:07:30;101308.31;;;18.12;70.90
70011;BME280;59543;37.950;-122.338;2023-07-29T01:10:07;101306.09;;;18.31;71.17
70011;BME280;59543;37.950;-122.338;2023-07-29T01:15:28;101312.44;;;17.93;71.66
70011;BME280;59543;37.950;-122.338;2023-07-29T01:18:23;101314.53;;;17.83;71.48
70011;BME280;59543;37.950;-122.338;2023-07-29T01:20:53;101322.72;;;17.75;72.67
70011;BME280;59543;37.950;-122.338;2023-07-29T01:23:33;101315.94;;;17.79;73.31
70011;BME280;59543;37.950;-122.338;2023-07-29T01:25:59;101320.59;;;17.93;72.45
70011;BME280;59543;37.950;-122.338;2023-07-29T01:28:27;101322.22;;;18.02;71.87
70011;BME280;59543;37.950;-122.338;2023-07-29T01:31:02;101316.63;;;17.96;72.09
70011;BME280;59543;37.950;-122.338;2023-07-29T01:33:42;101323.84;;;17.89;72.49
70011;BME280;59543;37.950;-122.338;2023-07-29T01:36:21;101324.16;;;17.63;73.18
70011;BME280;59543;37.950;-122.338;2023-07-29T01:38:49;101330.97;;;17.90;73.15
70011;BME280;59543;37.950;-122.338;2023-07-29T01:41:17;101321.03;;;17.74;72.79
70011;BME280;59543;37.950;-122.338;2023-07-29T01:43:45;101332.78;;;17.51;73.35
70011;BME280;59543;37.950;-122.338;2023-07-29T01:46:13;101320.34;;;17.57;72.99
70011;BME280;59543;37.950;-122.338;2023-07-29T01:48:41;101329.84;;;17.53;73.23
70011;BME280;59543;37.950;-122.338;2023-07-29T01:51:07;101324.63;;;17.51;73.30
70011;BME280;59543;37.950;-122.338;2023-07-29T01:53:35;101332.25;;;17.48;73.94
70011;BME280;59543;37.950;-122.338;2023-07-29T01:56:02;101335.13;;;17.54;73.73
70011;BME280;59543;37.950;-122.338;2023-07-29T01:58:28;101334.06;;;17.64;72.85
70011;BME280;59543;37.950;-122.338;2023-07-29T02:00:54;101332.56;;;17.84;72.66
70011;BME280;59543;37.950;-122.338;2023-07-29T02:03:20;101340.22;;;17.57;72.52
70011;BME280;59543;37.950;-122.338;2023-07-29T02:05:47;101341.28;;;17.71;72.45
70011;BME280;59543;37.950;-122.338;2023-07-29T02:08:13;101341.00;;;17.89;72.35
70011;BME280;59543;37.950;-122.338;2023-07-29T02:10:39;101350.03;;;17.90;71.98
70011;BME280;59543;37.950;-122.338;2023-07-29T02:13:06;101361.69;;;17.44;73.15
70011;BME280;59543;37.950;-122.338;2023-07-29T02:15:32;101361.50;;;17.54;72.43
70011;BME280;59543;37.950;-122.338;2023-07-29T02:17:59;101360.97;;;17.50;72.92
70011;BME280;59543;37.950;-122.338;2023-07-29T02:20:27;101373.25;;;17.46;72.89
70011;BME280;59543;37.950;-122.338;2023-07-29T02:22:54;101383.47;;;17.75;72.17
70011;BME280;59543;37.950;-122.338;2023-07-29T02:25:20;101386.91;;;17.69;71.83
70011;BME280;59543;37.950;-122.338;2023-07-29T02:27:46;101384.19;;;17.69;72.46
70011;BME280;59543;37.950;-122.338;2023-07-29T02:30:12;101384.13;;;17.77;71.49
70011;BME280;59543;37.950;-122.338;2023-07-29T02:32:39;101386.31;;;17.51;72.63
70011;BME280;59543;37.950;-122.338;2023-07-29T02:35:05;101384.81;;;17.48;73.15
70011;BME280;59543;37.950;-122.338;2023-07-29T02:37:32;101376.94;;;17.22;73.98
70011;BME280;59543;37.950;-122.338;2023-07-29T02:39:58;101372.63;;;16.97;74.86
70011;BME280;59543;37.950;-122.338;2023-07-29T02:42:24;101370.50;;;16.59;76.78
70011;BME280;59543;37.950;-122.338;2023-07-29T02:44:50;101368.84;;;16.42;77.71
70011;BME280;59543;37.950;-122.338;2023-07-29T02:47:17;101363.59;;;16.24;78.18
70011;BME280;59543;37.950;-122.338;2023-07-29T02:49:43;101373.25;;;16.18;79.02
70011;BME280;59543;37.950;-122.338;2023-07-29T02:52:09;101368.03;;;15.92;80.32
70011;BME280;59543;37.950;-122.338;2023-07-29T02:54:36;101374.44;;;15.91;80.78
70011;BME280;59543;37.950;-122.338;2023-07-29T02:57:02;101373.28;;;15.77;81.76
70011;BME280;59543;37.950;-122.338;2023-07-29T02:59:28;101384.41;;;15.66;82.57
70011;BME280;59543;37.950;-122.338;2023-07-29T03:01:54;101375.06;;;15.52;83.31
70011;BME280;59543;37.950;-122.338;2023-07-29T03:04:21;101381.31;;;15.45;84.01
70011;BME280;59543;37.950;-122.338;2023-07-29T03:06:47;101379.72;;;15.34;84.69
70011;BME280;59543;37.950;-122.338;2023-07-29T03:09:14;101377.34;;;15.31;85.09
70011;BME280;59543;37.950;-122.338;2023-07-29T03:11:40;101381.38;;;15.19;86.05
70011;BME280;59543;37.950;-122.338;2023-07-29T03:14:06;101383.19;;;15.02;87.40
70011;BME280;59543;37.950;-122.338;2023-07-29T03:16:32;101393.97;;;14.94;88.14
70011;BME280;59543;37.950;-122.338;2023-07-29T03:18:58;101391.25;;;14.94;88.54
70011;BME280;59543;37.950;-122.338;2023-07-29T03:21:26;101391.00;;;14.79;89.42
70011;BME280;59543;37.950;-122.338;2023-07-29T03:23:52;101387.94;;;14.74;89.86
70011;BME280;59543;37.950;-122.338;2023-07-29T03:26:18;101388.03;;;14.64;90.31
70011;BME280;59543;37.950;-122.338;2023-07-29T03:28:44;101391.06;;;14.61;90.79
70011;BME280;59543;37.950;-122.338;2023-07-29T03:31:11;101397.84;;;14.57;91.35
70011;BME280;59543;37.950;-122.338;2023-07-29T03:33:38;101392.41;;;14.57;91.45
70011;BME280;59543;37.950;-122.338;2023-07-29T03:36:04;101388.59;;;14.50;92.25
70011;BME280;59543;37.950;-122.338;2023-07-29T03:38:31;101396.44;;;14.53;91.64
70011;BME280;59543;37.950;-122.338;2023-07-29T03:40:58;101393.56;;;14.54;91.63
70011;BME280;59543;37.950;-122.338;2023-07-29T03:43:25;101389.94;;;14.46;92.07
70011;BME280;59543;37.950;-122.338;2023-07-29T03:45:51;101400.22;;;14.42;92.25
70011;BME280;59543;37.950;-122.338;2023-07-29T03:48:17;101405.56;;;14.34;92.96
70011;BME280;59543;37.950;-122.338;2023-07-29T03:50:43;101399.31;;;14.33;93.06
70011;BME280;59543;37.950;-122.338;2023-07-29T03:53:10;101401.00;;;14.34;93.48
70011;BME280;59543;37.950;-122.338;2023-07-29T03:55:36;101398.16;;;14.36;93.30
70011;BME280;59543;37.950;-122.338;2023-07-29T03:58:02;101399.69;;;14.38;93.04
70011;BME280;59543;37.950;-122.338;2023-07-29T04:00:28;101397.34;;;14.17;94.12
70011;BME280;59543;37.950;-122.338;2023-07-29T04:02:55;101386.44;;;14.09;94.69
70011;BME280;59543;37.950;-122.338;2023-07-29T04:05:21;101396.50;;;14.17;94.71
70011;BME280;59543;37.950;-122.338;2023-07-29T04:07:47;101401.50;;;14.12;94.84
70011;BME280;59543;37.950;-122.338;2023-07-29T04:10:14;101414.97;;;14.04;94.73
70011;BME280;59543;37.950;-122.338;2023-07-29T04:12:40;101417.44;;;14.15;94.42
70011;BME280;59543;37.950;-122.338;2023-07-29T04:15:07;101412.66;;;14.09;95.04
70011;BME280;59543;37.950;-122.338;2023-07-29T04:17:33;101411.50;;;14.11;94.96
70011;BME280;59543;37.950;-122.338;2023-07-29T04:19:59;101418.38;;;14.06;95.34
70011;BME280;59543;37.950;-122.338;2023-07-29T04:22:26;101415.75;;;13.96;95.93
70011;BME280;59543;37.950;-122.338;2023-07-29T04:24:52;101417.88;;;13.92;96.13
70011;BME280;59543;37.950;-122.338;2023-07-29T04:27:19;101425.38;;;13.99;95.95
70011;BME280;59543;37.950;-122.338;2023-07-29T04:29:45;101425.03;;;13.93;96.34
70011;BME280;59543;37.950;-122.338;2023-07-29T04:32:12;101416.38;;;13.90;96.07
70011;BME280;59543;37.950;-122.338;2023-07-29T04:34:38;101417.88;;;13.92;96.09
70011;BME280;59543;37.950;-122.338;2023-07-29T04:37:04;101410.09;;;13.89;96.29
70011;BME280;59543;37.950;-122.338;2023-07-29T04:39:30;101427.03;;;13.91;96.06
70011;BME280;59543;37.950;-122.338;2023-07-29T04:41:57;101423.16;;;13.94;96.17
70011;BME280;59543;37.950;-122.338;2023-07-29T04:44:23;101428.56;;;13.94;95.73
70011;BME280;59543;37.950;-122.338;2023-07-29T04:46:49;101434.69;;;13.96;95.87
70011;BME280;59543;37.950;-122.338;2023-07-29T04:49:16;101440.94;;;13.97;96.26
70011;BME280;59543;37.950;-122.338;2023-07-29T04:51:42;101441.63;;;13.99;95.98
70011;BME280;59543;37.950;-122.338;2023-07-29T04:54:08;101448.81;;;14.08;95.39
70011;BME280;59543;37.950;-122.338;2023-07-29T04:56:34;101442.31;;;14.01;96.06
70011;BME280;59543;37.950;-122.338;2023-07-29T04:59:01;101449.66;;;13.90;97.13
70011;BME280;59543;37.950;-122.338;2023-07-29T05:01:27;101448.03;;;13.98;97.29
70011;BME280;59543;37.950;-122.338;2023-07-29T05:03:53;101443.25;;;13.91;98.15
70011;BME280;59543;37.950;-122.338;2023-07-29T05:06:19;101449.81;;;13.89;98.50
70011;BME280;59543;37.950;-122.338;2023-07-29T05:08:46;101444.47;;;13.79;99.36
70011;BME280;59543;37.950;-122.338;2023-07-29T05:11:12;101446.34;;;13.79;99.44
70011;BME280;59543;37.950;-122.338;2023-07-29T05:13:38;101441.91;;;13.78;99.73
70011;BME280;59543;37.950;-122.338;2023-07-29T05:16:05;101443.63;;;13.79;99.40
70011;BME280;59543;37.950;-122.338;2023-07-29T05:18:31;101440.94;;;13.79;99.53
70011;BME280;59543;37.950;-122.338;2023-07-29T05:20:57;101433.72;;;13.69;100.00
70011;BME280;59543;37.950;-122.338;2023-07-29T05:23:23;101439.97;;;13.70;100.00
70011;BME280;59543;37.950;-122.338;2023-07-29T05:25:50;101448.34;;;13.77;99.85
70011;BME280;59543;37.950;-122.338;2023-07-29T05:28:16;101444.06;;;13.74;99.40
70011;BME280;59543;37.950;-122.338;2023-07-29T05:30:44;101451.41;;;13.64;100.00
70011;BME280;59543;37.950;-122.338;2023-07-29T05:33:10;101451.84;;;13.59;100.00
70011;BME280;59543;37.950;-122.338;2023-07-29T05:35:37;101439.34;;;13.58;100.00
70011;BME280;59543;37.950;-122.338;2023-07-29T05:38:03;101447.16;;;13.61;99.83
70011;BME280;59543;37.950;-122.338;2023-07-29T05:40:31;101461.88;;;13.49;100.00
70011;BME280;59543;37.950;-122.338;2023-07-29T05:42:58;101453.59;;;13.50;100.00
70011;BME280;59543;37.950;-122.338;2023-07-29T05:45:24;101451.19;;;13.47;100.00
70011;BME280;59543;37.950;-122.338;2023-07-29T05:47:50;101452.56;;;13.61;99.99
70011;BME280;59543;37.950;-122.338;2023-07-29T05:50:17;101451.72;;;13.61;99.92
70011;BME280;59543;37.950;-122.338;2023-07-29T05:52:43;101450.41;;;13.65;99.65
70011;BME280;59543;37.950;-122.338;2023-07-29T05:55:09;101440.72;;;13.62;99.48
70011;BME280;59543;37.950;-122.338;2023-07-29T05:57:35;101440.28;;;13.67;98.93
70011;BME280;59543;37.950;-122.338;2023-07-29T06:00:02;101446.53;;;13.67;98.83
70011;BME280;59543;37.950;-122.338;2023-07-29T06:02:28;101438.72;;;13.64;99.41
70011;BME280;59543;37.950;-122.338;2023-07-29T06:04:54;101443.44;;;13.62;99.69
70011;BME280;59543;37.950;-122.338;2023-07-29T06:07:21;101438.59;;;13.66;99.43
70011;BME280;59543;37.950;-122.338;2023-07-29T06:09:47;101437.44;;;13.86;98.29
70011;BME280;59543;37.950;-122.338;2023-07-29T06:12:13;101439.16;;;13.87;97.85
70011;BME280;59543;37.950;-122.338;2023-07-29T06:14:40;101442.78;;;13.78;97.46
70011;BME280;59543;37.950;-122.338;2023-07-29T06:17:06;101438.06;;;13.80;96.31
70011;BME280;59543;37.950;-122.338;2023-07-29T06:19:32;101436.91;;;13.83;96.05
70011;BME280;59543;37.950;-122.338;2023-07-29T06:21:58;101426.00;;;13.75;95.79
70011;BME280;59543;37.950;-122.338;2023-07-29T06:24:27;101432.19;;;13.85;95.28
70011;BME280;59543;37.950;-122.338;2023-07-29T06:26:53;101431.19;;;13.86;94.99
70011;BME280;59543;37.950;-122.338;2023-07-29T06:29:19;101430.25;;;13.77;95.52
70011;BME280;59543;37.950;-122.338;2023-07-29T06:31:45;101432.03;;;13.86;95.05
70011;BME280;59543;37.950;-122.338;2023-07-29T06:34:11;101434.59;;;13.88;94.93
70011;BME280;59543;37.950;-122.338;2023-07-29T06:36:38;101429.31;;;13.86;94.84
70011;BME280;59543;37.950;-122.338;2023-07-29T06:39:04;101438.91;;;13.81;95.15
70011;BME280;59543;37.950;-122.338;2023-07-29T06:41:31;101440.44;;;13.83;95.18
70011;BME280;59543;37.950;-122.338;2023-07-29T06:43:57;101437.75;;;13.83;95.33
70011;BME280;59543;37.950;-122.338;2023-07-29T06:46:23;101428.09;;;13.81;96.02
70011;BME280;59543;37.950;-122.338;2023-07-29T06:48:50;101444.16;;;13.82;96.78
70011;BME280;59543;37.950;-122.338;2023-07-29T06:51:16;101448.88;;;13.80;96.79
70011;BME280;59543;37.950;-122.338;2023-07-29T06:53:42;101445.19;;;13.81;96.86
70011;BME280;59543;37.950;-122.338;2023-07-29T06:56:08;101449.25;;;13.67;97.61
70011;BME280;59543;37.950;-122.338;2023-07-29T06:58:35;101445.09;;;13.73;97.20
70011;BME280;59543;37.950;-122.338;2023-07-29T07:01:01;101448.09;;;13.70;97.48
70011;BME280;59543;37.950;-122.338;2023-07-29T07:03:29;101443.69;;;13.69;97.83
70011;BME280;59543;37.950;-122.338;2023-07-29T07:05:55;101448.94;;;13.70;98.53
70011;BME280;59543;37.950;-122.338;2023-07-29T07:08:21;101453.81;;;13.67;98.55
70011;BME280;59543;37.950;-122.338;2023-07-29T07:10:47;101447.84;;;13.63;99.12
70011;BME280;59543;37.950;-122.338;2023-07-29T07:13:14;101439.66;;;13.55;100.00
70011;BME280;59543;37.950;-122.338;2023-07-29T07:15:40;101447.03;;;13.53;100.00
70011;BME280;59543;37.950;-122.338;2023-07-29T07:18:06;101439.84;;;13.44;100.00
70011;BME280;59543;37.950;-122.338;2023-07-29T07:20:32;101450.66;;;13.44;100.00
70011;BME280;59543;37.950;-122.338;2023-07-29T07:23:00;101450.53;;;13.45;100.00
70011;BME280;59543;37.950;-122.338;2023-07-29T07:25:26;101453.13;;;13.37;100.00
70011;BME280;59543;37.950;-122.338;2023-07-29T07:27:52;101450.72;;;13.34;100.00
70011;BME280;59543;37.950;-122.338;2023-07-29T07:30:19;101443.31;;;13.36;100.00
70011;BME280;59543;37.950;-122.338;2023-07-29T07:32:45;101449.88;;;13.34;100.00
70011;BME280;59543;37.950;-122.338;2023-07-29T07:35:12;101448.03;;;13.24;100.00
70011;BME280;59543;37.950;-122.338;2023-07-29T07:37:38;101449.19;;;13.22;100.00
70011;BME280;59543;37.950;-122.338;2023-07-29T07:40:05;101445.81;;;13.10;100.00
70011;BME280;59543;37.950;-122.338;2023-07-29T07:42:31;101449.25;;;13.02;100.00
70011;BME280;59543;37.950;-122.338;2023-07-29T07:44:57;101448.72;;;12.89;100.00
70011;BME280;59543;37.950;-122.338;2023-07-29T07:47:24;101461.50;;;12.87;100.00
70011;BME280;59543;37.950;-122.338;2023-07-29T07:49:50;101460.53;;;12.78;100.00
70011;BME280;59543;37.950;-122.338;2023-07-29T07:52:17;101466.69;;;12.71;100.00
70011;BME280;59543;37.950;-122.338;2023-07-29T07:54:43;101471.22;;;12.80;100.00
70011;BME280;59543;37.950;-122.338;2023-07-29T07:57:09;101466.94;;;12.77;100.00
70011;BME280;59543;37.950;-122.338;2023-07-29T07:59:36;101463.25;;;12.69;100.00
70011;BME280;59543;37.950;-122.338;2023-07-29T08:02:02;101464.09;;;12.69;100.00
70011;BME280;59543;37.950;-122.338;2023-07-29T08:04:28;101465.13;;;12.68;100.00
70011;BME280;59543;37.950;-122.338;2023-07-29T08:06:55;101457.88;;;12.69;100.00
70011;BME280;59543;37.950;-122.338;2023-07-29T08:09:21;101462.38;;;12.78;100.00
70011;BME280;59543;37.950;-122.338;2023-07-29T08:11:47;101459.56;;;12.79;100.00
70011;BME280;59543;37.950;-122.338;2023-07-29T08:14:13;101454.88;;;12.72;100.00
70011;BME280;59543;37.950;-122.338;2023-07-29T08:16:40;101453.16;;;12.80;100.00
70011;BME280;59543;37.950;-122.338;2023-07-29T08:19:06;101445.47;;;12.86;100.00
70011;BME280;59543;37.950;-122.338;2023-07-29T08:21:35;101444.22;;;12.80;100.00
70011;BME280;59543;37.950;-122.338;2023-07-29T08:24:02;101445.59;;;12.84;100.00
70011;BME280;59543;37.950;-122.338;2023-07-29T08:26:29;101445.00;;;12.90;100.00
70011;BME280;59543;37.950;-122.338;2023-07-29T08:28:55;101444.34;;;12.88;100.00
70011;BME280;59543;37.950;-122.338;2023-07-29T08:31:21;101440.66;;;12.79;100.00
70011;BME280;59543;37.950;-122.338;2023-07-29T08:33:48;101443.50;;;12.78;100.00
70011;BME280;59543;37.950;-122.338;2023-07-29T08:36:14;101445.22;;;12.69;100.00
70011;BME280;59543;37.950;-122.338;2023-07-29T08:38:40;101443.38;;;12.60;100.00
70011;BME280;59543;37.950;-122.338;2023-07-29T08:43:42;101439.13;;;12.67;100.00
70011;BME280;59543;37.950;-122.338;2023-07-29T08:46:09;101441.09;;;12.75;100.00
70011;BME280;59543;37.950;-122.338;2023-07-29T08:48:46;101438.28;;;12.67;100.00
70011;BME280;59543;37.950;-122.338;2023-07-29T08:51:12;101440.25;;;12.74;100.00
70011;BME280;59543;37.950;-122.338;2023-07-29T08:53:39;101430.88;;;12.69;100.00
70011;BME280;59543;37.950;-122.338;2023-07-29T08:56:06;101426.31;;;12.69;100.00
70011;BME280;59543;37.950;-122.338;2023-07-29T08:58:33;101443.69;;;12.67;100.00
70011;BME280;59543;37.950;-122.338;2023-07-29T09:01:01;101427.78;;;12.64;100.00
70011;BME280;59543;37.950;-122.338;2023-07-29T09:03:27;101419.50;;;12.75;100.00
70011;BME280;59543;37.950;-122.338;2023-07-29T09:05:55;101424.78;;;12.67;100.00
70011;BME280;59543;37.950;-122.338;2023-07-29T09:08:23;101418.25;;;12.59;100.00
70011;BME280;59543;37.950;-122.338;2023-07-29T09:10:50;101413.44;;;12.53;100.00
70011;BME280;59543;37.950;-122.338;2023-07-29T09:13:16;101416.97;;;12.64;100.00
70011;BME280;59543;37.950;-122.338;2023-07-29T09:15:43;101416.00;;;12.55;100.00
70011;BME280;59543;37.950;-122.338;2023-07-29T09:18:11;101408.03;;;12.53;100.00
70011;BME280;59543;37.950;-122.338;2023-07-29T09:20:37;101412.72;;;12.51;100.00
70011;BME280;59543;37.950;-122.338;2023-07-29T09:23:07;101412.16;;;12.48;100.00
70011;BME280;59543;37.950;-122.338;2023-07-29T09:25:35;101415.00;;;12.56;100.00
70011;BME280;59543;37.950;-122.338;2023-07-29T09:28:01;101405.22;;;12.45;100.00
70011;BME280;59543;37.950;-122.338;2023-07-29T09:30:33;101403.22;;;12.47;100.00
70011;BME280;59543;37.950;-122.338;2023-07-29T09:33:01;101395.97;;;12.48;100.00
70011;BME280;59543;37.950;-122.338;2023-07-29T09:35:33;101402.09;;;12.50;100.00
70011;BME280;59543;37.950;-122.338;2023-07-29T09:38:00;101406.78;;;12.48;100.00
70011;BME280;59543;37.950;-122.338;2023-07-29T09:40:26;101398.13;;;12.44;100.00
70011;BME280;59543;37.950;-122.338;2023-07-29T09:42:54;101396.72;;;12.40;100.00
70011;BME280;59543;37.950;-122.338;2023-07-29T09:45:25;101402.81;;;12.42;100.00
70011;BME280;59543;37.950;-122.338;2023-07-29T09:47:53;101403.38;;;12.36;100.00
70011;BME280;59543;37.950;-122.338;2023-07-29T09:50:27;101418.59;;;12.37;100.00
70011;BME280;59543;37.950;-122.338;2023-07-29T09:52:54;101413.47;;;12.44;100.00
70011;BME280;59543;37.950;-122.338;2023-07-29T09:55:22;101424.69;;;12.49;100.00
70011;BME280;59543;37.950;-122.338;2023-07-29T09:57:59;101418.03;;;12.43;100.00
70011;BME280;59543;37.950;-122.338;2023-07-29T10:00:32;101414.03;;;12.38;100.00
70011;BME280;59543;37.950;-122.338;2023-07-29T10:02:59;101422.97;;;12.38;100.00
70011;BME280;59543;37.950;-122.338;2023-07-29T10:05:29;101411.19;;;12.39;100.00
70011;BME280;59543;37.950;-122.338;2023-07-29T10:07:56;101411.75;;;12.33;100.00
70011;BME280;59543;37.950;-122.338;2023-07-29T10:10:23;101415.19;;;12.35;100.00
70011;BME280;59543;37.950;-122.338;2023-07-29T10:12:50;101416.03;;;12.26;100.00
70011;BME280;59543;37.950;-122.338;2023-07-29T10:15:17;101412.63;;;12.24;100.00
70011;BME280;59543;37.950;-122.338;2023-07-29T10:17:45;101413.06;;;12.29;100.00
70011;BME280;59543;37.950;-122.338;2023-07-29T10:20:12;101419.84;;;12.33;100.00
70011;BME280;59543;37.950;-122.338;2023-07-29T10:22:40;101418.44;;;12.29;100.00
70011;BME280;59543;37.950;-122.338;2023-07-29T10:25:16;101415.34;;;12.33;100.00
70011;BME280;59543;37.950;-122.338;2023-07-29T10:27:52;101419.44;;;12.38;100.00
70011;BME280;59543;37.950;-122.338;2023-07-29T10:30:19;101415.03;;;12.46;100.00
70011;BME280;59543;37.950;-122.338;2023-07-29T10:32:46;101427.22;;;12.50;100.00
70011;BME280;59543;37.950;-122.338;2023-07-29T10:35:14;101418.69;;;12.45;100.00
70011;BME280;59543;37.950;-122.338;2023-07-29T10:37:41;101419.84;;;12.52;100.00
70011;BME280;59543;37.950;-122.338;2023-07-29T10:40:09;101422.66;;;12.51;100.00
70011;BME280;59543;37.950;-122.338;2023-07-29T10:42:37;101414.44;;;12.52;100.00
70011;BME280;59543;37.950;-122.338;2023-07-29T10:45:18;101418.13;;;12.51;100.00
70011;BME280;59543;37.950;-122.338;2023-07-29T10:47:44;101413.19;;;12.47;100.00
70011;BME280;59543;37.950;-122.338;2023-07-29T10:50:21;101407.91;;;12.45;100.00
70011;BME280;59543;37.950;-122.338;2023-07-29T10:52:52;101411.31;;;12.47;100.00
70011;BME280;59543;37.950;-122.338;2023-07-29T10:55:32;101405.66;;;12.41;100.00
70011;BME280;59543;37.950;-122.338;2023-07-29T10:58:13;101404.78;;;12.50;100.00
70011;BME280;59543;37.950;-122.338;2023-07-29T11:00:41;101405.78;;;12.49;100.00
70011;BME280;59543;37.950;-122.338;2023-07-29T11:03:09;101408.78;;;12.46;100.00
70011;BME280;59543;37.950;-122.338;2023-07-29T11:06:05;101409.75;;;12.45;100.00
70011;BME280;59543;37.950;-122.338;2023-07-29T11:08:31;101404.81;;;12.40;100.00
70011;BME280;59543;37.950;-122.338;2023-07-29T11:13:29;101422.41;;;12.44;100.00
70011;BME280;59543;37.950;-122.338;2023-07-29T11:15:57;101429.22;;;12.39;100.00
70011;BME280;59543;37.950;-122.338;2023-07-29T11:18:28;101427.25;;;12.41;100.00
70011;BME280;59543;37.950;-122.338;2023-07-29T11:20:56;101428.53;;;12.46;100.00
70011;BME280;59543;37.950;-122.338;2023-07-29T11:23:33;101425.81;;;12.46;100.00
70011;BME280;59543;37.950;-122.338;2023-07-29T11:26:00;101418.41;;;12.48;100.00
70011;BME280;59543;37.950;-122.338;2023-07-29T11:28:27;101425.78;;;12.56;100.00
70011;BME280;59543;37.950;-122.338;2023-07-29T11:30:55;101426.22;;;12.51;100.00
70011;BME280;59543;37.950;-122.338;2023-07-29T11:33:25;101430.06;;;12.58;100.00
70011;BME280;59543;37.950;-122.338;2023-07-29T11:35:54;101432.47;;;12.62;100.00
70011;BME280;59543;37.950;-122.338;2023-07-29T11:38:22;101433.75;;;12.57;100.00
70011;BME280;59543;37.950;-122.338;2023-07-29T11:40:56;101435.16;;;12.62;100.00
70011;BME280;59543;37.950;-122.338;2023-07-29T11:43:22;101438.28;;;12.67;100.00
70011;BME280;59543;37.950;-122.338;2023-07-29T11:45:49;101441.38;;;12.72;100.00
70011;BME280;59543;37.950;-122.338;2023-07-29T11:48:15;101442.69;;;12.68;100.00
70011;BME280;59543;37.950;-122.338;2023-07-29T11:50:42;101447.91;;;12.79;100.00
70011;BME280;59543;37.950;-122.338;2023-07-29T11:53:08;101440.78;;;12.78;100.00
70011;BME280;59543;37.950;-122.338;2023-07-29T11:55:34;101430.28;;;12.75;100.00
70011;BME280;59543;37.950;-122.338;2023-07-29T11:58:01;101422.34;;;12.73;100.00
70011;BME280;59543;37.950;-122.338;2023-07-29T12:00:28;101425.34;;;12.70;100.00
70011;BME280;59543;37.950;-122.338;2023-07-29T12:02:55;101422.66;;;12.70;100.00
70011;BME280;59543;37.950;-122.338;2023-07-29T12:05:22;101426.31;;;12.69;100.00
70011;BME280;59543;37.950;-122.338;2023-07-29T12:07:49;101424.06;;;12.65;100.00
70011;BME280;59543;37.950;-122.338;2023-07-29T12:10:16;101438.28;;;12.67;100.00
70011;BME280;59543;37.950;-122.338;2023-07-29T12:12:50;101432.00;;;12.66;100.00
70011;BME280;59543;37.950;-122.338;2023-07-29T12:15:26;101438.41;;;12.65;100.00
70011;BME280;59543;37.950;-122.338;2023-07-29T12:17:57;101448.78;;;12.70;100.00
70011;BME280;59543;37.950;-122.338;2023-07-29T12:20:24;101445.09;;;12.51;100.00
70011;BME280;59543;37.950;-122.338;2023-07-29T12:22:58;101445.25;;;12.59;100.00
70011;BME280;59543;37.950;-122.338;2023-07-29T12:25:27;101454.47;;;12.57;100.00